sensor_id;sensor_type;location;lat;lon;timestamp;pressure;altitude;pressure_sealevel;temperature
75431;BMP280;64127;51.488;5.462;2023-04-24T00:01:42;99818.78;;;12.68
75431;BMP280;64127;51.488;5.462;2023-04-24T00:04:14;99818.78;;;12.68
75431;BMP280;64127;51.488;5.462;2023-04-24T00:06:48;99807.22;;;12.59
75431;BMP280;64127;51.488;5.462;2023-04-24T00:09:26;99811.66;;;12.61
75431;BMP280;64127;51.488;5.462;2023-04-24T00:11:58;99819.56;;;12.64
75431;BMP280;64127;51.488;5.462;2023-04-24T00:14:31;99820.47;;;12.63
75431;BMP280;64127;51.488;5.462;2023-04-24T00:17:04;99824.78;;;12.61
75431;BMP280;64127;51.488;5.462;2023-04-24T00:19:36;99821.28;;;12.59
75431;BMP280;64127;51.488;5.462;2023-04-24T00:22:08;99820.38;;;12.60
75431;BMP280;64127;51.488;5.462;2023-04-24T00:24:40;99820.41;;;12.62
75431;BMP280;64127;51.488;5.462;2023-04-24T00:27:12;99815.03;;;12.54
75431;BMP280;64127;51.488;5.462;2023-04-24T00:29:44;99827.28;;;12.54
75431;BMP280;64127;51.488;5.462;2023-04-24T00:32:16;99821.97;;;12.49
75431;BMP280;64127;51.488;5.462;2023-04-24T00:34:49;99835.25;;;12.58
75431;BMP280;64127;51.488;5.462;2023-04-24T00:37:21;99826.47;;;12.56
75431;BMP280;64127;51.488;5.462;2023-04-24T00:39:53;99826.34;;;12.49
75431;BMP280;64127;51.488;5.462;2023-04-24T00:42:26;99841.31;;;12.53
75431;BMP280;64127;51.488;5.462;2023-04-24T00:44:59;99835.13;;;12.51
75431;BMP280;64127;51.488;5.462;2023-04-24T00:47:33;99832.53;;;12.52
75431;BMP280;64127;51.488;5.462;2023-04-24T00:50:07;99835.09;;;12.48
75431;BMP280;64127;51.488;5.462;2023-04-24T00:52:39;99837.75;;;12.49
75431;BMP280;64127;51.488;5.462;2023-04-24T00:55:12;99841.19;;;12.47
75431;BMP280;64127;51.488;5.462;2023-04-24T00:57:45;99839.41;;;12.44
75431;BMP280;64127;51.488;5.462;2023-04-24T01:00:19;99841.94;;;12.38
75431;BMP280;64127;51.488;5.462;2023-04-24T01:02:52;99834.94;;;12.39
75431;BMP280;64127;51.488;5.462;2023-04-24T01:05:25;99834.94;;;12.39
75431;BMP280;64127;51.488;5.462;2023-04-24T01:07:58;99832.28;;;12.37
75431;BMP280;64127;51.488;5.462;2023-04-24T01:10:33;99803.19;;;12.25
75431;BMP280;64127;51.488;5.462;2023-04-24T01:13:10;99832.28;;;12.37
75431;BMP280;64127;51.488;5.462;2023-04-24T01:15:42;99829.63;;;12.36
75431;BMP280;64127;51.488;5.462;2023-04-24T01:18:15;99832.25;;;12.36
75431;BMP280;64127;51.488;5.462;2023-04-24T01:20:53;99826.09;;;12.34
75431;BMP280;64127;51.488;5.462;2023-04-24T01:23:26;99829.56;;;12.31
75431;BMP280;64127;51.488;5.462;2023-04-24T01:25:58;99828.69;;;12.32
75431;BMP280;64127;51.488;5.462;2023-04-24T01:28:31;99819.91;;;12.30
75431;BMP280;64127;51.488;5.462;2023-04-24T01:31:03;99823.22;;;12.20
75431;BMP280;64127;51.488;5.462;2023-04-24T01:33:35;99801.97;;;12.06
75431;BMP280;64127;51.488;5.462;2023-04-24T01:36:10;99830.22;;;12.18
75431;BMP280;64127;51.488;5.462;2023-04-24T01:38:42;99825.00;;;12.21
75431;BMP280;64127;51.488;5.462;2023-04-24T01:41:15;99790.47;;;12.00
75431;BMP280;64127;51.488;5.462;2023-04-24T01:43:48;99828.47;;;12.20
75431;BMP280;64127;51.488;5.462;2023-04-24T01:46:21;99830.16;;;12.15
75431;BMP280;64127;51.488;5.462;2023-04-24T01:48:53;99822.28;;;12.16
75431;BMP280;64127;51.488;5.462;2023-04-24T01:51:25;99825.84;;;12.18
75431;BMP280;64127;51.488;5.462;2023-04-24T01:53:57;99821.47;;;12.19
75431;BMP280;64127;51.488;5.462;2023-04-24T01:56:29;99821.47;;;12.19
75431;BMP280;64127;51.488;5.462;2023-04-24T01:59:03;99832.78;;;12.16
75431;BMP280;64127;51.488;5.462;2023-04-24T02:01:36;99835.34;;;12.12
75431;BMP280;64127;51.488;5.462;2023-04-24T02:04:08;99818.47;;;11.98
75431;BMP280;64127;51.488;5.462;2023-04-24T02:06:41;99826.41;;;12.01
75431;BMP280;64127;51.488;5.462;2023-04-24T02:09:13;99840.47;;;12.06
75431;BMP280;64127;51.488;5.462;2023-04-24T02:11:45;99842.25;;;12.05
75431;BMP280;64127;51.488;5.462;2023-04-24T02:14:17;99827.91;;;11.88
75431;BMP280;64127;51.488;5.462;2023-04-24T02:16:49;99853.50;;;12.00
75431;BMP280;64127;51.488;5.462;2023-04-24T02:19:21;99845.59;;;11.98
75431;BMP280;64127;51.488;5.462;2023-04-24T02:21:53;99844.81;;;12.04
75431;BMP280;64127;51.488;5.462;2023-04-24T02:24:25;99848.31;;;12.03
75431;BMP280;64127;51.488;5.462;2023-04-24T02:26:57;99845.69;;;12.03
75431;BMP280;64127;51.488;5.462;2023-04-24T02:29:29;99849.22;;;12.05
75431;BMP280;64127;51.488;5.462;2023-04-24T02:32:02;99845.72;;;12.06
75431;BMP280;64127;51.488;5.462;2023-04-24T02:34:34;99850.13;;;12.05
75431;BMP280;64127;51.488;5.462;2023-04-24T02:37:06;99845.72;;;12.06
75431;BMP280;64127;51.488;5.462;2023-04-24T02:39:38;99840.31;;;11.97
75431;BMP280;64127;51.488;5.462;2023-04-24T02:42:10;99833.22;;;11.93
75431;BMP280;64127;51.488;5.462;2023-04-24T02:44:42;99836.75;;;11.93
75431;BMP280;64127;51.488;5.462;2023-04-24T02:47:14;99828.91;;;11.95
75431;BMP280;64127;51.488;5.462;2023-04-24T02:49:46;99842.97;;;11.98
75431;BMP280;64127;51.488;5.462;2023-04-24T02:52:18;99828.09;;;11.99
75431;BMP280;64127;51.488;5.462;2023-04-24T02:54:50;99838.63;;;12.00
75431;BMP280;64127;51.488;5.462;2023-04-24T02:57:22;99828.19;;;12.02
75431;BMP280;64127;51.488;5.462;2023-04-24T02:59:55;99829.16;;;12.08
75431;BMP280;64127;51.488;5.462;2023-04-24T03:02:27;99823.88;;;12.07
75431;BMP280;64127;51.488;5.462;2023-04-24T03:04:59;99833.47;;;12.05
75431;BMP280;64127;51.488;5.462;2023-04-24T03:07:31;99826.41;;;12.01
75431;BMP280;64127;51.488;5.462;2023-04-24T03:10:05;99822.78;;;11.96
75431;BMP280;64127;51.488;5.462;2023-04-24T03:12:37;99828.78;;;11.89
75431;BMP280;64127;51.488;5.462;2023-04-24T03:15:09;99834.13;;;11.93
75431;BMP280;64127;51.488;5.462;2023-04-24T03:17:41;99827.97;;;11.93
75431;BMP280;64127;51.488;5.462;2023-04-24T03:20:14;99833.22;;;11.91
75431;BMP280;64127;51.488;5.462;2023-04-24T03:22:46;99826.19;;;11.92
75431;BMP280;64127;51.488;5.462;2023-04-24T03:25:18;99838.44;;;11.90
75431;BMP280;64127;51.488;5.462;2023-04-24T03:27:50;99837.53;;;11.88
75431;BMP280;64127;51.488;5.462;2023-04-24T03:30:22;99827.94;;;11.90
75431;BMP280;64127;51.488;5.462;2023-04-24T03:32:54;99824.47;;;11.91
75431;BMP280;64127;51.488;5.462;2023-04-24T03:35:26;99845.41;;;11.88
75431;BMP280;64127;51.488;5.462;2023-04-24T03:37:58;99841.91;;;11.89
75431;BMP280;64127;51.488;5.462;2023-04-24T03:40:30;99838.31;;;11.84
75431;BMP280;64127;51.488;5.462;2023-04-24T03:43:02;99840.94;;;11.84
75431;BMP280;64127;51.488;5.462;2023-04-24T03:45:34;99833.06;;;11.84
75431;BMP280;64127;51.488;5.462;2023-04-24T03:48:06;99835.72;;;11.85
75431;BMP280;64127;51.488;5.462;2023-04-24T03:50:39;99833.09;;;11.85
75431;BMP280;64127;51.488;5.462;2023-04-24T03:53:11;99829.59;;;11.85
75431;BMP280;64127;51.488;5.462;2023-04-24T03:55:43;99828.56;;;11.77
75431;BMP280;64127;51.488;5.462;2023-04-24T03:58:15;99826.88;;;11.80
75431;BMP280;64127;51.488;5.462;2023-04-24T04:00:47;99827.78;;;11.81
75431;BMP280;64127;51.488;5.462;2023-04-24T04:03:19;99832.22;;;11.85
75431;BMP280;64127;51.488;5.462;2023-04-24T04:05:52;99834.75;;;11.82
75431;BMP280;64127;51.488;5.462;2023-04-24T04:08:26;99835.72;;;11.85
75431;BMP280;64127;51.488;5.462;2023-04-24T04:10:58;99831.34;;;11.86
75431;BMP280;64127;51.488;5.462;2023-04-24T04:13:29;99834.84;;;11.85
75431;BMP280;64127;51.488;5.462;2023-04-24T04:16:02;99836.50;;;11.80
75431;BMP280;64127;51.488;5.462;2023-04-24T04:18:34;99836.44;;;11.77
75431;BMP280;64127;51.488;5.462;2023-04-24T04:21:06;99845.25;;;11.80
75431;BMP280;64127;51.488;5.462;2023-04-24T04:23:38;99830.28;;;11.76
75431;BMP280;64127;51.488;5.462;2023-04-24T04:26:11;99834.66;;;11.76
75431;BMP280;64127;51.488;5.462;2023-04-24T04:28:44;99842.53;;;11.74
75431;BMP280;64127;51.488;5.462;2023-04-24T04:31:16;99823.97;;;11.66
75431;BMP280;64127;51.488;5.462;2023-04-24T04:33:48;99845.84;;;11.67
75431;BMP280;64127;51.488;5.462;2023-04-24T04:36:20;99832.50;;;11.58
75431;BMP280;64127;51.488;5.462;2023-04-24T04:38:52;99847.56;;;11.66
75431;BMP280;64127;51.488;5.462;2023-04-24T04:41:26;99848.38;;;11.62
75431;BMP280;64127;51.488;5.462;2023-04-24T04:43:58;99854.47;;;11.61
75431;BMP280;64127;51.488;5.462;2023-04-24T04:46:31;99846.59;;;11.61
75431;BMP280;64127;51.488;5.462;2023-04-24T04:49:04;99848.25;;;11.56
75431;BMP280;64127;51.488;5.462;2023-04-24T04:51:36;99854.34;;;11.54
75431;BMP280;64127;51.488;5.462;2023-04-24T04:54:08;99827.75;;;11.39
75431;BMP280;64127;51.488;5.462;2023-04-24T04:56:40;99854.34;;;11.54
75431;BMP280;64127;51.488;5.462;2023-04-24T04:59:12;99855.19;;;11.54
75431;BMP280;64127;51.488;5.462;2023-04-24T05:01:44;99854.28;;;11.52
75431;BMP280;64127;51.488;5.462;2023-04-24T05:04:16;99861.25;;;11.50
75431;BMP280;64127;51.488;5.462;2023-04-24T05:06:49;99851.41;;;11.40
75431;BMP280;64127;51.488;5.462;2023-04-24T05:09:22;99852.38;;;11.44
75431;BMP280;64127;51.488;5.462;2023-04-24T05:11:55;99854.09;;;11.43
75431;BMP280;64127;51.488;5.462;2023-04-24T05:14:27;99849.59;;;11.36
75431;BMP280;64127;51.488;5.462;2023-04-24T05:16:59;99865.63;;;11.51
75431;BMP280;64127;51.488;5.462;2023-04-24T05:19:32;99868.31;;;11.54
75431;BMP280;64127;51.488;5.462;2023-04-24T05:22:08;99874.50;;;11.56
75431;BMP280;64127;51.488;5.462;2023-04-24T05:24:41;99867.47;;;11.55
75431;BMP280;64127;51.488;5.462;2023-04-24T05:27:13;99871.75;;;11.50
75431;BMP280;64127;51.488;5.462;2023-04-24T05:29:45;99882.09;;;11.44
75431;BMP280;64127;51.488;5.462;2023-04-24T05:32:17;99876.81;;;11.43
75431;BMP280;64127;51.488;5.462;2023-04-24T05:34:49;99881.13;;;11.39
75431;BMP280;64127;51.488;5.462;2023-04-24T05:37:22;99898.53;;;11.37
75431;BMP280;64127;51.488;5.462;2023-04-24T05:39:54;99891.38;;;11.30
75431;BMP280;64127;51.488;5.462;2023-04-24T05:42:26;99896.56;;;11.27
75431;BMP280;64127;51.488;5.462;2023-04-24T05:44:58;99906.19;;;11.27
75431;BMP280;64127;51.488;5.462;2023-04-24T05:47:30;99910.56;;;11.28
75431;BMP280;64127;51.488;5.462;2023-04-24T05:50:02;99915.81;;;11.26
75431;BMP280;64127;51.488;5.462;2023-04-24T05:52:34;99912.16;;;11.21
75431;BMP280;64127;51.488;5.462;2023-04-24T05:55:06;99919.19;;;11.22
75431;BMP280;64127;51.488;5.462;2023-04-24T05:57:39;99920.03;;;11.21
75431;BMP280;64127;51.488;5.462;2023-04-24T06:00:12;99920.03;;;11.21
75431;BMP280;64127;51.488;5.462;2023-04-24T06:02:44;99928.84;;;11.23
75431;BMP280;64127;51.488;5.462;2023-04-24T06:05:16;99930.50;;;11.19
75431;BMP280;64127;51.488;5.462;2023-04-24T06:07:49;99926.09;;;11.18
75431;BMP280;64127;51.488;5.462;2023-04-24T06:10:21;99931.31;;;11.17
75431;BMP280;64127;51.488;5.462;2023-04-24T06:12:53;99935.72;;;11.18
75431;BMP280;64127;51.488;5.462;2023-04-24T06:15:31;99911.03;;;11.08
75431;BMP280;64127;51.488;5.462;2023-04-24T06:18:03;99937.56;;;11.24
75431;BMP280;64127;51.488;5.462;2023-04-24T06:20:35;99948.03;;;11.22
75431;BMP280;64127;51.488;5.462;2023-04-24T06:23:07;99948.03;;;11.22
75431;BMP280;64127;51.488;5.462;2023-04-24T06:25:39;99954.13;;;11.21
75431;BMP280;64127;51.488;5.462;2023-04-24T06:28:12;99965.44;;;11.18
75431;BMP280;64127;51.488;5.462;2023-04-24T06:30:44;99968.00;;;11.17
75431;BMP280;64127;51.488;5.462;2023-04-24T06:33:16;99977.59;;;11.15
75431;BMP280;64127;51.488;5.462;2023-04-24T06:35:53;99989.75;;;11.11
75431;BMP280;64127;51.488;5.462;2023-04-24T06:38:25;99987.97;;;11.10
75431;BMP280;64127;51.488;5.462;2023-04-24T06:40:58;99995.81;;;11.09
75431;BMP280;64127;51.488;5.462;2023-04-24T06:43:29;100007.06;;;11.05
75431;BMP280;64127;51.488;5.462;2023-04-24T06:46:02;100012.25;;;11.03
75431;BMP280;64127;51.488;5.462;2023-04-24T06:48:35;100017.47;;;11.02
75431;BMP280;64127;51.488;5.462;2023-04-24T06:51:07;100032.44;;;11.06
75431;BMP280;64127;51.488;5.462;2023-04-24T06:53:39;100037.69;;;11.06
75431;BMP280;64127;51.488;5.462;2023-04-24T06:56:11;100045.50;;;11.04
75431;BMP280;64127;51.488;5.462;2023-04-24T06:58:43;100040.91;;;10.96
75431;BMP280;64127;51.488;5.462;2023-04-24T07:01:17;100060.19;;;10.98
75431;BMP280;64127;51.488;5.462;2023-04-24T07:03:49;100056.66;;;10.96
75431;BMP280;64127;51.488;5.462;2023-04-24T07:06:21;100060.03;;;10.92
75431;BMP280;64127;51.488;5.462;2023-04-24T07:08:55;100083.78;;;10.98
75431;BMP280;64127;51.488;5.462;2023-04-24T07:11:28;100074.72;;;10.87
75431;BMP280;64127;51.488;5.462;2023-04-24T07:14:01;100106.41;;;10.94
75431;BMP280;64127;51.488;5.462;2023-04-24T07:16:33;100109.91;;;10.95
75431;BMP280;64127;51.488;5.462;2023-04-24T07:19:05;100124.00;;;11.00
75431;BMP280;64127;51.488;5.462;2023-04-24T07:21:37;100124.78;;;10.96
75431;BMP280;64127;51.488;5.462;2023-04-24T07:24:09;100127.50;;;10.99
75431;BMP280;64127;51.488;5.462;2023-04-24T07:26:42;100127.41;;;10.96
75431;BMP280;64127;51.488;5.462;2023-04-24T07:29:14;100149.53;;;11.07
75431;BMP280;64127;51.488;5.462;2023-04-24T07:31:47;100156.53;;;11.06
75431;BMP280;64127;51.488;5.462;2023-04-24T07:34:19;100169.53;;;11.03
75431;BMP280;64127;51.488;5.462;2023-04-24T07:36:51;100156.56;;;11.08
75431;BMP280;64127;51.488;5.462;2023-04-24T07:39:24;100160.00;;;11.05
75431;BMP280;64127;51.488;5.462;2023-04-24T07:41:56;100179.41;;;11.12
75431;BMP280;64127;51.488;5.462;2023-04-24T07:44:28;100193.38;;;11.11
75431;BMP280;64127;51.488;5.462;2023-04-24T07:47:00;100208.94;;;11.05
75431;BMP280;64127;51.488;5.462;2023-04-24T07:49:32;100216.88;;;11.08
75431;BMP280;64127;51.488;5.462;2023-04-24T07:52:06;100217.56;;;11.01
75431;BMP280;64127;51.488;5.462;2023-04-24T07:54:38;100232.59;;;11.08
75431;BMP280;64127;51.488;5.462;2023-04-24T07:57:10;100237.84;;;11.08
75431;BMP280;64127;51.488;5.462;2023-04-24T07:59:42;100245.94;;;11.15
75431;BMP280;64127;51.488;5.462;2023-04-24T08:02:14;100244.97;;;11.12
75431;BMP280;64127;51.488;5.462;2023-04-24T08:04:47;100255.31;;;11.07
75431;BMP280;64127;51.488;5.462;2023-04-24T08:07:19;100250.13;;;11.09
75431;BMP280;64127;51.488;5.462;2023-04-24T08:09:51;100263.34;;;11.13
75431;BMP280;64127;51.488;5.462;2023-04-24T08:12:23;100266.94;;;11.17
75431;BMP280;64127;51.488;5.462;2023-04-24T08:14:55;100275.78;;;11.20
75431;BMP280;64127;51.488;5.462;2023-04-24T08:17:27;100239.34;;;11.00
75431;BMP280;64127;51.488;5.462;2023-04-24T08:19:59;100282.03;;;11.24
75431;BMP280;64127;51.488;5.462;2023-04-24T08:22:33;100285.69;;;11.29
75431;BMP280;64127;51.488;5.462;2023-04-24T08:25:06;100277.66;;;11.23
75431;BMP280;64127;51.488;5.462;2023-04-24T08:27:38;100291.75;;;11.28
75431;BMP280;64127;51.488;5.462;2023-04-24T08:30:11;100304.03;;;11.29
75431;BMP280;64127;51.488;5.462;2023-04-24T08:32:43;100309.38;;;11.32
75431;BMP280;64127;51.488;5.462;2023-04-24T08:35:15;100308.41;;;11.29
75431;BMP280;64127;51.488;5.462;2023-04-24T08:37:47;100309.28;;;11.29
75431;BMP280;64127;51.488;5.462;2023-04-24T08:40:27;100321.50;;;11.29
75431;BMP280;64127;51.488;5.462;2023-04-24T08:43:03;100324.16;;;11.30
75431;BMP280;64127;51.488;5.462;2023-04-24T08:45:36;100321.66;;;11.33
75431;BMP280;64127;51.488;5.462;2023-04-24T08:48:09;100342.81;;;11.39
75431;BMP280;64127;51.488;5.462;2023-04-24T08:50:54;100337.66;;;11.42
75431;BMP280;64127;51.488;5.462;2023-04-24T08:53:28;100354.50;;;11.50
75431;BMP280;64127;51.488;5.462;2023-04-24T08:56:01;100355.50;;;11.54
75431;BMP280;64127;51.488;5.462;2023-04-24T08:58:35;100358.13;;;11.54
75431;BMP280;64127;51.488;5.462;2023-04-24T09:01:07;100360.00;;;11.59
75431;BMP280;64127;51.488;5.462;2023-04-24T09:03:40;100364.59;;;11.66
75431;BMP280;64127;51.488;5.462;2023-04-24T09:06:13;100367.41;;;11.71
75431;BMP280;64127;51.488;5.462;2023-04-24T09:08:46;100373.50;;;11.72
75431;BMP280;64127;51.488;5.462;2023-04-24T09:11:19;100375.94;;;11.65
75431;BMP280;64127;51.488;5.462;2023-04-24T09:13:51;100380.19;;;11.62
75431;BMP280;64127;51.488;5.462;2023-04-24T09:16:26;100378.41;;;11.61
75431;BMP280;64127;51.488;5.462;2023-04-24T09:18:58;100395.91;;;11.60
75431;BMP280;64127;51.488;5.462;2023-04-24T09:21:35;100391.28;;;11.52
75431;BMP280;64127;51.488;5.462;2023-04-24T09:24:15;100363.50;;;11.30
75431;BMP280;64127;51.488;5.462;2023-04-24T09:26:58;100400.09;;;11.54
75431;BMP280;64127;51.488;5.462;2023-04-24T09:29:30;100401.78;;;11.52
75431;BMP280;64127;51.488;5.462;2023-04-24T09:32:22;100427.41;;;11.60
75431;BMP280;64127;51.488;5.462;2023-04-24T09:35:11;100433.66;;;11.64
75431;BMP280;64127;51.488;5.462;2023-04-24T09:37:47;100446.78;;;11.65
75431;BMP280;64127;51.488;5.462;2023-04-24T09:40:22;100429.84;;;11.54
75431;BMP280;64127;51.488;5.462;2023-04-24T09:42:57;100449.16;;;11.56
75431;BMP280;64127;51.488;5.462;2023-04-24T09:45:36;100427.41;;;11.32
75431;BMP280;64127;51.488;5.462;2023-04-24T09:48:11;100459.22;;;11.43
75431;BMP280;64127;51.488;5.462;2023-04-24T09:50:46;100454.78;;;11.40
75431;BMP280;64127;51.488;5.462;2023-04-24T09:53:24;100475.78;;;11.40
75431;BMP280;64127;51.488;5.462;2023-04-24T09:56:06;100474.25;;;11.48
75431;BMP280;64127;51.488;5.462;2023-04-24T09:58:38;100469.19;;;11.54
75431;BMP280;64127;51.488;5.462;2023-04-24T10:01:11;100473.75;;;11.60
75431;BMP280;64127;51.488;5.462;2023-04-24T10:03:43;100475.88;;;11.72
75431;BMP280;64127;51.488;5.462;2023-04-24T10:06:16;100482.34;;;11.83
75431;BMP280;64127;51.488;5.462;2023-04-24T10:08:49;100474.94;;;11.98
75431;BMP280;64127;51.488;5.462;2023-04-24T10:11:23;100470.16;;;12.14
75431;BMP280;64127;51.488;5.462;2023-04-24T10:13:55;100473.94;;;12.24
75431;BMP280;64127;51.488;5.462;2023-04-24T10:16:29;100467.75;;;12.22
75431;BMP280;64127;51.488;5.462;2023-04-24T10:19:03;100473.38;;;12.36
75431;BMP280;64127;51.488;5.462;2023-04-24T10:21:35;100483.25;;;12.44
75431;BMP280;64127;51.488;5.462;2023-04-24T10:24:12;100468.91;;;12.33
75431;BMP280;64127;51.488;5.462;2023-04-24T10:26:45;100481.34;;;12.39
75431;BMP280;64127;51.488;5.462;2023-04-24T10:29:19;100481.13;;;12.31
75431;BMP280;64127;51.488;5.462;2023-04-24T10:31:51;100491.59;;;12.30
75431;BMP280;64127;51.488;5.462;2023-04-24T10:34:24;100503.81;;;12.28
75431;BMP280;64127;51.488;5.462;2023-04-24T10:36:57;100497.41;;;12.18
75431;BMP280;64127;51.488;5.462;2023-04-24T10:39:29;100520.00;;;12.13
75431;BMP280;64127;51.488;5.462;2023-04-24T10:42:14;100514.50;;;12.04
75431;BMP280;64127;51.488;5.462;2023-04-24T10:44:50;100519.75;;;12.04
75431;BMP280;64127;51.488;5.462;2023-04-24T10:47:22;100525.06;;;12.05
75431;BMP280;64127;51.488;5.462;2023-04-24T10:49:59;100509.25;;;12.04
75431;BMP280;64127;51.488;5.462;2023-04-24T10:52:48;100520.88;;;12.12
75431;BMP280;64127;51.488;5.462;2023-04-24T10:58:14;100524.56;;;12.18
75431;BMP280;64127;51.488;5.462;2023-04-24T11:00:59;100528.28;;;12.27
75431;BMP280;64127;51.488;5.462;2023-04-24T11:03:34;100530.41;;;12.40
75431;BMP280;64127;51.488;5.462;2023-04-24T11:06:08;100530.69;;;12.49
75431;BMP280;64127;51.488;5.462;2023-04-24T11:08:45;100529.72;;;12.45
75431;BMP280;64127;51.488;5.462;2023-04-24T11:11:18;100527.09;;;12.45
75431;BMP280;64127;51.488;5.462;2023-04-24T11:16:54;100541.56;;;12.31
75431;BMP280;64127;51.488;5.462;2023-04-24T11:19:29;100527.41;;;12.26
75431;BMP280;64127;51.488;5.462;2023-04-24T11:22:14;100544.69;;;12.18
75431;BMP280;64127;51.488;5.462;2023-04-24T11:27:20;100567.28;;;12.13
75431;BMP280;64127;51.488;5.462;2023-04-24T11:32:48;100555.47;;;11.99
75431;BMP280;64127;51.488;5.462;2023-04-24T11:35:23;100559.31;;;12.10
75431;BMP280;64127;51.488;5.462;2023-04-24T11:37:59;100576.13;;;12.15
75431;BMP280;64127;51.488;5.462;2023-04-24T11:40:55;100575.25;;;12.14
75431;BMP280;64127;51.488;5.462;2023-04-24T11:43:30;100565.31;;;12.06
75431;BMP280;64127;51.488;5.462;2023-04-24T11:46:04;100582.06;;;12.09
75431;BMP280;64127;51.488;5.462;2023-04-24T11:48:38;100583.88;;;12.10
75431;BMP280;64127;51.488;5.462;2023-04-24T11:51:15;100588.22;;;12.10
75431;BMP280;64127;51.488;5.462;2023-04-24T11:53:47;100603.00;;;12.06
75431;BMP280;64127;51.488;5.462;2023-04-24T11:56:32;100591.50;;;12.03
75431;BMP280;64127;51.488;5.462;2023-04-24T11:59:04;100604.16;;;12.16
75431;BMP280;64127;51.488;5.462;2023-04-24T12:01:44;100600.78;;;12.20
75431;BMP280;64127;51.488;5.462;2023-04-24T12:04:17;100608.66;;;12.20
75431;BMP280;64127;51.488;5.462;2023-04-24T12:07:04;100602.59;;;12.23
75431;BMP280;64127;51.488;5.462;2023-04-24T12:09:45;100602.66;;;12.24
75431;BMP280;64127;51.488;5.462;2023-04-24T12:12:18;100613.44;;;12.33
75431;BMP280;64127;51.488;5.462;2023-04-24T12:14:55;100610.25;;;12.43
75431;BMP280;64127;51.488;5.462;2023-04-24T12:17:33;100607.16;;;12.56
75431;BMP280;64127;51.488;5.462;2023-04-24T12:20:07;100565.69;;;12.46
75431;BMP280;64127;51.488;5.462;2023-04-24T12:22:51;100608.53;;;12.74
75431;BMP280;64127;51.488;5.462;2023-04-24T12:25:29;100622.75;;;12.82
75431;BMP280;64127;51.488;5.462;2023-04-24T12:30:44;100618.94;;;12.70
75431;BMP280;64127;51.488;5.462;2023-04-24T12:33:21;100621.63;;;12.72
75431;BMP280;64127;51.488;5.462;2023-04-24T12:35:54;100629.66;;;12.78
75431;BMP280;64127;51.488;5.462;2023-04-24T12:38:28;100631.31;;;12.75
75431;BMP280;64127;51.488;5.462;2023-04-24T12:41:04;100632.34;;;12.80
75431;BMP280;64127;51.488;5.462;2023-04-24T12:43:37;100634.22;;;12.84
75431;BMP280;64127;51.488;5.462;2023-04-24T12:46:09;100631.00;;;12.94
75431;BMP280;64127;51.488;5.462;2023-04-24T12:48:41;100634.22;;;13.13
75431;BMP280;64127;51.488;5.462;2023-04-24T12:51:14;100626.88;;;13.35
75431;BMP280;64127;51.488;5.462;2023-04-24T12:53:46;100643.88;;;13.47
75431;BMP280;64127;51.488;5.462;2023-04-24T12:56:18;100638.91;;;13.58
75431;BMP280;64127;51.488;5.462;2023-04-24T12:58:50;100627.78;;;13.69
75431;BMP280;64127;51.488;5.462;2023-04-24T13:01:23;100630.00;;;13.89
75431;BMP280;64127;51.488;5.462;2023-04-24T13:03:55;100634.63;;;13.99
75431;BMP280;64127;51.488;5.462;2023-04-24T13:06:28;100641.78;;;14.04
75431;BMP280;64127;51.488;5.462;2023-04-24T13:09:00;100641.91;;;14.09
75431;BMP280;64127;51.488;5.462;2023-04-24T13:11:32;100640.66;;;13.93
75431;BMP280;64127;51.488;5.462;2023-04-24T13:14:04;100651.78;;;13.82
75431;BMP280;64127;51.488;5.462;2023-04-24T13:16:36;100620.16;;;13.46
75431;BMP280;64127;51.488;5.462;2023-04-24T13:19:08;100654.34;;;13.44
75431;BMP280;64127;51.488;5.462;2023-04-24T13:21:40;100654.94;;;13.34
75431;BMP280;64127;51.488;5.462;2023-04-24T13:24:12;100672.41;;;13.31
75431;BMP280;64127;51.488;5.462;2023-04-24T13:26:45;100684.34;;;13.18
75431;BMP280;64127;51.488;5.462;2023-04-24T13:29:17;100683.88;;;13.03
75431;BMP280;64127;51.488;5.462;2023-04-24T13:31:54;100687.16;;;12.96
75431;BMP280;64127;51.488;5.462;2023-04-24T13:34:29;100692.34;;;12.93
75431;BMP280;64127;51.488;5.462;2023-04-24T13:37:01;100684.97;;;12.81
75431;BMP280;64127;51.488;5.462;2023-04-24T13:39:35;100696.16;;;12.74
75431;BMP280;64127;51.488;5.462;2023-04-24T13:42:07;100675.72;;;12.64
75431;BMP280;64127;51.488;5.462;2023-04-24T13:44:40;100687.75;;;12.56
75431;BMP280;64127;51.488;5.462;2023-04-24T13:47:12;100687.00;;;12.60
75431;BMP280;64127;51.488;5.462;2023-04-24T13:49:44;100685.31;;;12.62
75431;BMP280;64127;51.488;5.462;2023-04-24T13:52:16;100680.38;;;12.73
75431;BMP280;64127;51.488;5.462;2023-04-24T13:54:48;100687.66;;;12.83
75431;BMP280;64127;51.488;5.462;2023-04-24T13:57:20;100671.88;;;12.83
75431;BMP280;64127;51.488;5.462;2023-04-24T13:59:52;100700.19;;;12.91
75431;BMP280;64127;51.488;5.462;2023-04-24T14:02:24;100683.22;;;12.80
75431;BMP280;64127;51.488;5.462;2023-04-24T14:04:57;100697.28;;;12.81
75431;BMP280;64127;51.488;5.462;2023-04-24T14:07:29;100688.47;;;12.80
75431;BMP280;64127;51.488;5.462;2023-04-24T14:10:02;100683.16;;;12.79
75431;BMP280;64127;51.488;5.462;2023-04-24T14:12:34;100691.88;;;12.78
75431;BMP280;64127;51.488;5.462;2023-04-24T14:15:07;100692.19;;;12.87
75431;BMP280;64127;51.488;5.462;2023-04-24T14:17:40;100697.53;;;12.90
75431;BMP280;64127;51.488;5.462;2023-04-24T14:20:12;100700.16;;;12.90
75431;BMP280;64127;51.488;5.462;2023-04-24T14:22:44;100695.31;;;12.75
75431;BMP280;64127;51.488;5.462;2023-04-24T14:25:17;100703.88;;;12.68
75431;BMP280;64127;51.488;5.462;2023-04-24T14:27:49;100708.31;;;12.69
75431;BMP280;64127;51.488;5.462;2023-04-24T14:30:21;100695.97;;;12.66
75431;BMP280;64127;51.488;5.462;2023-04-24T14:32:53;100693.41;;;12.69
75431;BMP280;64127;51.488;5.462;2023-04-24T14:35:25;100698.03;;;12.77
75431;BMP280;64127;51.488;5.462;2023-04-24T14:37:59;100699.91;;;12.81
75431;BMP280;64127;51.488;5.462;2023-04-24T14:40:31;100695.47;;;12.80
75431;BMP280;64127;51.488;5.462;2023-04-24T14:43:07;100691.13;;;12.82
75431;BMP280;64127;51.488;5.462;2023-04-24T14:45:39;100699.41;;;12.94
75431;BMP280;64127;51.488;5.462;2023-04-24T14:48:13;100691.13;;;13.10
75431;BMP280;64127;51.488;5.462;2023-04-24T14:50:45;100689.78;;;13.24